Hancocks Bridge, New Jersey
Current Conditions -  °F | °C
As of 7:51 AM on Thursday 30 Oct 2014 (Local Time) from KILG Reporting Station
Overcast Overcast  
Wind Chill: 45°   Ceiling: 7000
Heat Index: 45°   Visibility: 9mi
Dew Point: 44°   Wind: 3mph
Humidity: 97%   Direction: 290°WNW
Pressure: 30.02"   Gusts: NA
Location:  39.51°N, 75.46°W
Report Text: KILG 301151Z AUTO 29003KT 9SM OVC070 07/07 A3002 RMK AO2 SLP165 70006 T00720067 10078 20050 53010
Loading
Personal Weather Stations






























Interactive Weather Map
Tropical Storm Tracking
New forecast layout! Learn more

10-Day Weather Forecast

Advertisements
Track Severe Weather on mobile